Adams, Oklahoma
Current Conditions -  °F | °C
As of 2:55 AM on Wednesday 26 Nov 2014 (Local Time) from KLBL Reporting Station
Clear Clear  
Wind Chill: 28°   Ceiling: Unl
Heat Index: 37°   Visibility: 10mi
Dew Point: 28°   Wind: 17mph
Humidity: 70%   Direction: 360°N
Pressure: 30.08"   Gusts: 23mph
Location:  36.76°N, 101.08°W
Report Text: KLBL 260855Z AUTO 36015G20KT 10SM CLR 03/M02 A3008 RMK AO1 52037
Loading
Personal Weather Stations






























Interactive Weather Map New forecast layout! Learn more

10-Day Weather Forecast

Advertisements
Track Severe Weather on mobile